Portada
METAR-TAF:

METAR-TAF

Aeropuertos :

Base Aérea de Monte Agradable

Puerto Argentino / Stanley, Islas Malvinas

latitud: 51-49S, longitud: 058-27W, altitud: 74 m

Observación

El informe se hizo hace 3 horas y 13 minutos, a las 04:50 UTC
Viento 6 kt del norte
Temperatura 5°C
Humedad 65%
Presión 1004 hPa
Visibilidad 10 km o más
sin nubes por debajo de 1500 m y sin presencia de cumulonimbus.

METAR: EGYP 210450Z 35006KT CAVOK 05/M01 Q1004 BLU

Hora: 05:03 (08:03 UTC)

Pronóstico

El informe se hizo hace 3 horas y 46 minutos, a las 04:17 UTC
Pronóstico válido del 21 a las 06 UTC al 21 a las 24 UTC
Viento 12 kt del noroeste
Visibilidad 10 km o más
Escasas nubes a una altura de 2000 ft

TAF: EGYP 210417Z 2106/2124 31012KT 9999 FEW020

Observaciones y pronósticos meteorológicos de más de 4000 aeropuertos (mensajes METAR y TAF).

Los puntos amarillos y rojos representan las estaciones disponibles.

Ponga el ratón en el punto deseado para ver el nombre de la estación.

Haga clic para ver las observaciones y los pronósticos meteorológicos.

Para cambiar el mapa : haga clic en los botones verdes con una cruz de color negro para hacer un zoom, en el botón verde con un guión para alejar o en las flechas verdes para mapas adyacentes.


METAR-TAF: